Corozal, Belize
Current Conditions -  °F | °C
As of 10:44 PM on Thursday 30 Oct 2014 (Local Time) from MMCM Reporting Station
Broken Clouds Broken Clouds  
Wind Chill: 77°   Ceiling: 10000
Heat Index: 78°   Visibility: 7mi
Dew Point: 72°   Wind: 0mph
Humidity: 83%   Direction: NA
Pressure: 29.92"   Gusts: NA
Location:  18.4°N, 88.39°W
Report Text: MMCM 310444Z 00000KT 7SM SCT010 BKN100 25/22 A2992 RMK 8/520 RTS
Loading
Personal Weather Stations






























Interactive Weather Map
Tropical Storm Tracking
New forecast layout! Learn more

10-Day Weather Forecast

Advertisements
Track Severe Weather on mobile